createdAt,value
2023-03-02T00:00:16.776Z,101948.19
2023-03-02T00:01:11.149Z,101952.38
2023-03-02T00:02:14.983Z,101952.38
2023-03-02T00:03:07.159Z,101958.22
2023-03-02T00:04:03.358Z,101958.22
2023-03-02T00:04:58.164Z,101952.22
2023-03-02T00:05:50.266Z,101956.09
2023-03-02T00:06:42.417Z,101959.56
2023-03-02T00:07:35.005Z,101957.94
2023-03-02T00:08:28.814Z,101954.47
2023-03-02T00:09:20.530Z,101951.78
2023-03-02T00:10:12.175Z,101954.31
2023-03-02T00:11:04.290Z,101959.56
2023-03-02T00:11:56.270Z,101950.88
2023-03-02T00:12:48.165Z,101959.41
2023-03-02T00:13:39.798Z,101954.94
2023-03-02T00:14:31.390Z,101957.47
2023-03-02T00:15:23.021Z,101950.59
2023-03-02T00:16:17.422Z,101952.84
2023-03-02T00:17:10.337Z,101957.94
2023-03-02T00:18:01.829Z,101952.84
2023-03-02T00:18:53.444Z,101960.63
2023-03-02T00:19:44.989Z,101956.44
2023-03-02T00:20:36.692Z,101958.81
2023-03-02T00:21:28.269Z,101953.91
2023-03-02T00:22:20.045Z,101955.69
2023-03-02T00:23:11.821Z,101962.88
2023-03-02T00:24:03.431Z,101954.19
2023-03-02T00:24:54.902Z,101963.63
2023-03-02T00:25:46.587Z,101962.88
2023-03-02T00:26:38.288Z,101953.56
2023-03-02T00:27:30.235Z,101961.06
2023-03-02T00:28:21.700Z,101959.28
2023-03-02T00:29:13.244Z,101963.75
2023-03-02T00:30:05.908Z,101958.38
2023-03-02T00:30:59.206Z,101955.81
2023-03-02T00:31:50.881Z,101956.56
2023-03-02T00:32:42.625Z,101959.13
2023-03-02T00:33:34.608Z,101962.41
2023-03-02T00:34:26.106Z,101959.56
2023-03-02T00:35:18.354Z,101955.97
2023-03-02T00:36:20.407Z,101956.72
2023-03-02T00:37:11.857Z,101954.19
2023-03-02T00:38:03.278Z,101956.72
2023-03-02T00:38:55.020Z,101958.53
2023-03-02T00:39:46.735Z,101949.09
2023-03-02T00:40:38.437Z,101953.44
2023-03-02T00:41:30.237Z,101958.69
2023-03-02T00:42:21.962Z,101957.66
2023-03-02T00:43:13.590Z,101961.69
2023-03-02T00:44:05.482Z,101951.19
2023-03-02T00:45:01.603Z,101960.31
2023-03-02T00:45:56.305Z,101959.28
2023-03-02T00:46:48.062Z,101958.09
2023-03-02T00:47:41.475Z,101954.81
2023-03-02T00:48:33.064Z,101959.59
2023-03-02T00:49:25.222Z,101944.91
2023-03-02T00:50:16.784Z,101955.84
2023-03-02T00:51:09.359Z,101960.81
2023-03-02T00:52:01.021Z,101955.38
2023-03-02T00:52:52.655Z,101956.88
2023-03-02T00:53:45.076Z,101954.97
2023-03-02T00:54:36.755Z,101956.47
2023-03-02T00:55:28.306Z,101952.69
2023-03-02T00:56:19.728Z,101953.63
2023-03-02T00:57:14.723Z,101956.47
2023-03-02T00:58:06.308Z,101956.00
2023-03-02T00:58:57.820Z,101951.78
2023-03-02T00:59:49.318Z,101947.31
2023-03-02T01:00:56.739Z,101955.53
2023-03-02T01:01:58.053Z,101948.53
2023-03-02T01:02:51.248Z,101950.91
2023-03-02T01:03:42.758Z,101956.75
2023-03-02T01:04:37.931Z,101948.06
2023-03-02T01:05:31.229Z,101954.66
2023-03-02T01:06:22.747Z,101947.75
2023-03-02T01:07:17.904Z,101952.72
2023-03-02T01:08:09.457Z,101946.13
2023-03-02T01:09:01.059Z,101944.63
2023-03-02T01:09:53.085Z,101941.31
2023-03-02T01:10:44.603Z,101939.38
2023-03-02T01:11:36.009Z,101940.88
2023-03-02T01:12:27.697Z,101935.63
2023-03-02T01:13:21.247Z,101935.34
2023-03-02T01:14:12.656Z,101929.94
2023-03-02T01:15:05.099Z,101935.66
2023-03-02T01:16:03.482Z,101930.41
2023-03-02T01:16:55.064Z,101921.88
2023-03-02T01:17:46.697Z,101925.03
2023-03-02T01:18:38.752Z,101923.06
2023-03-02T01:19:30.405Z,101921.13
2023-03-02T01:20:22.032Z,101924.56
2023-03-02T01:21:15.930Z,101917.53
2023-03-02T01:22:08.314Z,101920.97
2023-03-02T01:23:00.848Z,101927.09
2023-03-02T01:23:52.771Z,101922.00
2023-03-02T01:24:44.411Z,101919.63
2023-03-02T01:25:36.231Z,101921.56
2023-03-02T01:26:28.371Z,101920.06
2023-03-02T01:27:20.679Z,101925.91
2023-03-02T01:28:12.134Z,101922.47
2023-03-02T01:29:04.290Z,101918.44
2023-03-02T01:29:55.871Z,101916.94
2023-03-02T01:30:47.591Z,101922.03
2023-03-02T01:31:39.347Z,101915.72
2023-03-02T01:32:31.422Z,101914.84
2023-03-02T01:33:23.320Z,101915.59
2023-03-02T01:34:15.010Z,101904.50
2023-03-02T01:35:07.016Z,101908.72
2023-03-02T01:35:58.538Z,101911.09
2023-03-02T01:36:50.483Z,101906.63
2023-03-02T01:37:42.221Z,101908.13
2023-03-02T01:38:33.884Z,101908.13
2023-03-02T01:39:25.672Z,101905.13
2023-03-02T01:40:17.428Z,101906.63
2023-03-02T01:41:09.366Z,101900.34
2023-03-02T01:42:00.947Z,101907.34
2023-03-02T01:43:02.249Z,101897.47
2023-03-02T01:43:54.921Z,101898.66
2023-03-02T01:44:48.249Z,101893.72
2023-03-02T01:45:54.004Z,101901.50
2023-03-02T01:46:52.772Z,101894.91
2023-03-02T01:47:44.706Z,101897.47
2023-03-02T01:48:54.227Z,101892.50
2023-03-02T01:50:05.350Z,101886.41
2023-03-02T01:51:04.478Z,101888.34
2023-03-02T01:51:56.080Z,101887.16
2023-03-02T01:52:49.708Z,101890.16
2023-03-02T01:53:46.729Z,101887.00
2023-03-02T01:54:41.760Z,101885.97
2023-03-02T01:55:36.902Z,101884.00
2023-03-02T01:56:36.111Z,101886.72
2023-03-02T01:57:43.775Z,101885.81
2023-03-02T01:58:38.122Z,101892.84
2023-03-02T01:59:33.257Z,101879.22
2023-03-02T02:00:29.649Z,101887.91
2023-03-02T02:01:22.239Z,101882.22
2023-03-02T02:02:13.795Z,101883.56
2023-03-02T02:03:12.611Z,101883.88
2023-03-02T02:04:04.516Z,101884.31
2023-03-02T02:04:57.294Z,101880.00
2023-03-02T02:06:18.193Z,101876.97
2023-03-02T02:07:10.975Z,101876.06
2023-03-02T02:08:03.386Z,101881.03
2023-03-02T02:08:57.479Z,101881.59
2023-03-02T02:09:52.845Z,101875.16
2023-03-02T02:10:44.335Z,101878.91
2023-03-02T02:11:36.178Z,101880.56
2023-03-02T02:12:27.688Z,101879.34
2023-03-02T02:13:19.535Z,101875.19
2023-03-02T02:14:12.292Z,101878.78
2023-03-02T02:15:05.257Z,101878.78
2023-03-02T02:15:56.980Z,101878.91
2023-03-02T02:16:49.252Z,101876.38
2023-03-02T02:17:41.256Z,101877.41
2023-03-02T02:18:35.991Z,101883.25
2023-03-02T02:19:59.240Z,101885.78
2023-03-02T02:20:55.077Z,101883.88
2023-03-02T02:21:47.696Z,101894.63
2023-03-02T02:22:48.048Z,101886.84
2023-03-02T02:24:03.697Z,101881.03
2023-03-02T02:25:03.417Z,101879.53
2023-03-02T02:26:20.985Z,101877.28
2023-03-02T02:27:14.754Z,101877.28
2023-03-02T02:28:14.240Z,101872.78
2023-03-02T02:29:27.923Z,101877.72
2023-03-02T02:30:22.387Z,101877.56
2023-03-02T02:31:23.116Z,101874.88
2023-03-02T02:32:26.859Z,101870.69
2023-03-02T02:33:24.454Z,101876.69
2023-03-02T02:34:23.801Z,101874.72
2023-03-02T02:35:22.688Z,101875.47
2023-03-02T02:36:27.102Z,101873.81
2023-03-02T02:37:30.627Z,101880.38
2023-03-02T02:38:23.260Z,101877.84
2023-03-02T02:39:22.380Z,101869.34
2023-03-02T02:40:20.694Z,101870.97
2023-03-02T02:41:21.667Z,101871.72
2023-03-02T02:42:34.340Z,101869.16
2023-03-02T02:43:30.707Z,101872.75
2023-03-02T02:44:22.525Z,101859.91
2023-03-02T02:45:27.498Z,101870.84
2023-03-02T02:46:19.246Z,101865.44
2023-03-02T02:47:18.217Z,101862.88
2023-03-02T02:48:17.693Z,101861.44
2023-03-02T02:49:25.854Z,101866.50
2023-03-02T02:50:23.999Z,101866.19
2023-03-02T02:51:23.837Z,101872.00
2023-03-02T02:52:19.492Z,101870.97
2023-03-02T02:53:44.057Z,101870.66
2023-03-02T02:54:38.418Z,101874.13
2023-03-02T02:55:33.276Z,101872.47
2023-03-02T02:56:30.959Z,101873.22
2023-03-02T02:57:28.197Z,101872.31
2023-03-02T02:58:43.939Z,101869.16
2023-03-02T02:59:46.144Z,101877.72
2023-03-02T03:00:38.360Z,101872.47
2023-03-02T03:01:30.193Z,101871.88
2023-03-02T03:02:25.082Z,101870.97
2023-03-02T03:03:36.671Z,101861.09
2023-03-02T03:04:32.582Z,101871.84
2023-03-02T03:05:24.299Z,101869.31
2023-03-02T03:06:25.508Z,101873.22
2023-03-02T03:07:24.132Z,101867.22
2023-03-02T03:08:49.486Z,101870.06
2023-03-02T03:09:55.369Z,101869.19
2023-03-02T03:10:47.238Z,101869.63
2023-03-02T03:11:43.838Z,101874.25
2023-03-02T03:12:38.945Z,101872.31
2023-03-02T03:13:30.904Z,101871.28
2023-03-02T03:14:30.636Z,101873.06
2023-03-02T03:15:22.941Z,101868.00
2023-03-02T03:16:17.722Z,101870.53
2023-03-02T03:17:13.370Z,101868.44
2023-03-02T03:18:24.483Z,101868.28
2023-03-02T03:19:26.536Z,101867.09
2023-03-02T03:20:20.089Z,101866.03
2023-03-02T03:21:11.561Z,101871.69
2023-03-02T03:22:03.218Z,101862.84
2023-03-02T03:23:00.938Z,101861.97
2023-03-02T03:23:54.720Z,101866.00
2023-03-02T03:24:46.492Z,101860.94
2023-03-02T03:25:41.711Z,101865.09
2023-03-02T03:26:33.856Z,101864.97
2023-03-02T03:27:26.845Z,101866.88
2023-03-02T03:28:18.368Z,101862.56
2023-03-02T03:29:10.896Z,101864.97
2023-03-02T03:30:03.345Z,101857.03
2023-03-02T03:30:58.105Z,101866.28
2023-03-02T03:31:50.777Z,101853.75
2023-03-02T03:32:42.599Z,101856.13
2023-03-02T03:33:34.266Z,101864.78
2023-03-02T03:34:26.651Z,101854.19
2023-03-02T03:35:18.311Z,101851.38
2023-03-02T03:36:10.294Z,101856.16
2023-03-02T03:37:02.023Z,101850.47
2023-03-02T03:37:57.628Z,101861.56
2023-03-02T03:38:49.461Z,101854.69
2023-03-02T03:39:42.134Z,101855.25
2023-03-02T03:40:34.327Z,101855.69
2023-03-02T03:41:27.378Z,101857.94
2023-03-02T03:42:19.258Z,101862.72
2023-03-02T03:43:13.653Z,101855.66
2023-03-02T03:44:05.930Z,101860.94
2023-03-02T03:44:59.462Z,101861.50
2023-03-02T03:45:51.988Z,101863.91
2023-03-02T03:46:44.268Z,101865.97
2023-03-02T03:47:36.682Z,101864.94
2023-03-02T03:48:29.726Z,101863.88
2023-03-02T03:49:21.552Z,101865.97
2023-03-02T03:50:13.235Z,101859.41
2023-03-02T03:51:06.513Z,101858.97
2023-03-02T03:51:59.075Z,101873.19
2023-03-02T03:52:50.999Z,101867.34
2023-03-02T03:53:59.528Z,101863.63
2023-03-02T03:54:54.191Z,101864.72
2023-03-02T03:55:46.081Z,101859.16
2023-03-02T03:56:42.648Z,101861.53
2023-03-02T03:57:34.401Z,101849.16
2023-03-02T03:58:26.334Z,101855.56
2023-03-02T03:59:22.467Z,101864.53
2023-03-02T04:00:18.990Z,101857.78
2023-03-02T04:01:19.535Z,101855.25
2023-03-02T04:02:11.961Z,101855.09
2023-03-02T04:03:06.587Z,101848.97
2023-03-02T04:03:58.438Z,101856.47
2023-03-02T04:04:50.317Z,101853.47
2023-03-02T04:05:43.622Z,101857.03
2023-03-02T04:06:36.037Z,101862.28
2023-03-02T04:07:27.847Z,101854.34
2023-03-02T04:08:19.518Z,101855.97
2023-03-02T04:09:12.198Z,101853.31
2023-03-02T04:10:07.535Z,101857.38
2023-03-02T04:11:02.188Z,101858.72
2023-03-02T04:11:56.409Z,101851.53
2023-03-02T04:12:49.048Z,101855.09
2023-03-02T04:13:40.675Z,101853.00
2023-03-02T04:14:33.869Z,101850.91
2023-03-02T04:15:27.588Z,101852.53
2023-03-02T04:16:20.251Z,101864.78
2023-03-02T04:17:11.943Z,101859.91
2023-03-02T04:18:07.518Z,101863.50
2023-03-02T04:19:01.553Z,101857.38
2023-03-02T04:19:53.431Z,101861.22
2023-03-02T04:20:44.890Z,101858.38
2023-03-02T04:21:45.206Z,101861.22
2023-03-02T04:22:37.572Z,101854.47
2023-03-02T04:23:29.471Z,101854.94
2023-03-02T04:24:23.017Z,101860.19
2023-03-02T04:25:21.720Z,101854.34
2023-03-02T04:26:15.444Z,101856.72
2023-03-02T04:27:06.940Z,101855.84
2023-03-02T04:27:59.925Z,101851.19
2023-03-02T04:28:54.178Z,101852.84
2023-03-02T04:29:46.437Z,101852.38
2023-03-02T04:30:38.864Z,101853.13
2023-03-02T04:31:32.922Z,101847.47
2023-03-02T04:32:25.241Z,101854.34
2023-03-02T04:33:19.959Z,101859.13
2023-03-02T04:34:11.896Z,101857.34
2023-03-02T04:35:06.627Z,101858.09
2023-03-02T04:35:58.372Z,101853.75
2023-03-02T04:36:50.178Z,101854.19
2023-03-02T04:37:42.896Z,101851.78
2023-03-02T04:38:34.719Z,101849.09
2023-03-02T04:39:26.892Z,101854.00
2023-03-02T04:40:18.351Z,101862.69
2023-03-02T04:41:09.873Z,101864.47
2023-03-02T04:42:01.509Z,101861.81
2023-03-02T04:42:52.983Z,101857.59
2023-03-02T04:43:44.383Z,101859.09
2023-03-02T04:44:35.905Z,101854.47
2023-03-02T04:45:27.583Z,101854.47
2023-03-02T04:46:23.501Z,101855.50
2023-03-02T04:47:15.077Z,101853.13
2023-03-02T04:48:07.375Z,101850.91
2023-03-02T04:48:58.849Z,101855.22
2023-03-02T04:49:54.538Z,101857.91
2023-03-02T04:50:46.011Z,101855.38
2023-03-02T04:51:41.137Z,101854.00
2023-03-02T04:52:32.668Z,101855.38
2023-03-02T04:53:24.092Z,101852.34
2023-03-02T04:54:21.557Z,101853.28
2023-03-02T04:55:20.236Z,101852.66
2023-03-02T04:56:11.688Z,101857.00
2023-03-02T04:57:03.510Z,101844.16
2023-03-02T04:57:55.030Z,101844.16
2023-03-02T04:58:46.978Z,101850.00
2023-03-02T04:59:38.484Z,101847.44
2023-03-02T05:00:34.022Z,101846.41
2023-03-02T05:01:26.436Z,101846.53
2023-03-02T05:02:17.992Z,101849.09
2023-03-02T05:03:09.598Z,101849.84
2023-03-02T05:04:02.921Z,101849.09
2023-03-02T05:04:54.902Z,101847.44
2023-03-02T05:05:46.430Z,101851.47
2023-03-02T05:06:37.965Z,101854.19
2023-03-02T05:07:29.454Z,101850.47
2023-03-02T05:08:21.133Z,101851.03
2023-03-02T05:09:13.098Z,101847.44
2023-03-02T05:10:04.868Z,101848.63
2023-03-02T05:10:58.344Z,101852.09
2023-03-02T05:11:49.774Z,101851.03
2023-03-02T05:12:58.226Z,101851.16
2023-03-02T05:13:56.063Z,101859.41
2023-03-02T05:14:47.951Z,101853.84
2023-03-02T05:15:40.790Z,101851.88
2023-03-02T05:16:35.636Z,101851.75
2023-03-02T05:17:27.335Z,101855.16
2023-03-02T05:18:20.181Z,101860.56
2023-03-02T05:19:12.491Z,101856.22
2023-03-02T05:20:07.302Z,101860.25
2023-03-02T05:20:58.855Z,101858.31
2023-03-02T05:21:50.461Z,101863.22
2023-03-02T05:22:41.956Z,101862.03
2023-03-02T05:23:34.585Z,101863.66
2023-03-02T05:24:26.315Z,101858.44
2023-03-02T05:25:17.737Z,101862.63
2023-03-02T05:26:10.262Z,101859.94
2023-03-02T05:27:01.713Z,101852.16
2023-03-02T05:27:53.165Z,101856.19
2023-03-02T05:28:46.221Z,101865.44
2023-03-02T05:29:37.668Z,101858.56
2023-03-02T05:30:29.276Z,101855.28
2023-03-02T05:31:21.918Z,101858.56
2023-03-02T05:32:13.506Z,101856.78
2023-03-02T05:33:05.197Z,101855.69
2023-03-02T05:33:57.232Z,101861.53
2023-03-02T05:34:48.711Z,101864.06
2023-03-02T05:35:41.256Z,101855.38
2023-03-02T05:36:33.324Z,101860.47
2023-03-02T05:37:25.065Z,101857.78
2023-03-02T05:38:16.837Z,101856.13
2023-03-02T05:39:09.486Z,101851.97
2023-03-02T05:40:01.180Z,101858.66
2023-03-02T05:40:53.267Z,101850.19
2023-03-02T05:41:45.400Z,101856.75
2023-03-02T05:42:37.399Z,101853.47
2023-03-02T05:43:28.993Z,101845.66
2023-03-02T05:44:20.840Z,101852.72
2023-03-02T05:45:39.065Z,101856.88
2023-03-02T05:46:31.143Z,101852.53
2023-03-02T05:47:22.793Z,101851.97
2023-03-02T05:48:15.636Z,101854.66
2023-03-02T05:49:07.349Z,101858.97
2023-03-02T05:49:59.267Z,101854.06
2023-03-02T05:50:50.736Z,101859.31
2023-03-02T05:51:42.310Z,101859.47
2023-03-02T05:52:33.756Z,101857.84
2023-03-02T05:53:25.581Z,101858.28
2023-03-02T05:54:17.091Z,101859.03
2023-03-02T05:55:08.726Z,101861.56
2023-03-02T05:56:00.208Z,101864.28
2023-03-02T05:56:51.907Z,101863.53
2023-03-02T05:57:44.109Z,101865.63
2023-03-02T05:58:35.651Z,101863.25
2023-03-02T05:59:27.130Z,101858.66
2023-03-02T06:00:19.993Z,101863.44
2023-03-02T06:01:14.787Z,101867.44
2023-03-02T06:02:06.732Z,101868.34
2023-03-02T06:02:58.265Z,101860.16
2023-03-02T06:03:49.795Z,101861.78
2023-03-02T06:04:43.006Z,101859.97
2023-03-02T06:05:35.433Z,101866.56
2023-03-02T06:06:27.023Z,101860.25
2023-03-02T06:07:18.643Z,101859.81
2023-03-02T06:08:11.170Z,101857.00
2023-03-02T06:09:02.785Z,101861.34
2023-03-02T06:09:54.343Z,101859.84
2023-03-02T06:10:45.925Z,101863.31
2023-03-02T06:11:37.363Z,101863.59
2023-03-02T06:12:29.124Z,101861.50
2023-03-02T06:13:20.596Z,101862.72
2023-03-02T06:14:12.014Z,101859.13
2023-03-02T06:15:05.409Z,101862.41
2023-03-02T06:15:57.091Z,101862.28
2023-03-02T06:16:48.952Z,101859.47
2023-03-02T06:17:40.622Z,101856.91
2023-03-02T06:18:32.197Z,101865.13
2023-03-02T06:19:23.877Z,101860.50
2023-03-02T06:20:16.029Z,101864.09
2023-03-02T06:21:07.712Z,101871.41
2023-03-02T06:21:59.170Z,101865.91
2023-03-02T06:22:51.353Z,101872.47
2023-03-02T06:23:42.822Z,101869.31
2023-03-02T06:24:34.349Z,101861.97
2023-03-02T06:25:26.067Z,101872.28
2023-03-02T06:26:17.633Z,101873.47
2023-03-02T06:27:09.252Z,101876.63
2023-03-02T06:28:00.701Z,101876.13
2023-03-02T06:28:53.921Z,101879.59
2023-03-02T06:29:45.596Z,101880.34
2023-03-02T06:30:37.117Z,101880.03
2023-03-02T06:31:28.775Z,101874.50
2023-03-02T06:32:20.321Z,101881.81
2023-03-02T06:33:11.936Z,101868.25
2023-03-02T06:34:04.945Z,101878.25
2023-03-02T06:34:56.424Z,101873.91
2023-03-02T06:35:49.452Z,101880.03
2023-03-02T06:36:41.328Z,101883.50
2023-03-02T06:37:33.444Z,101878.72
2023-03-02T06:38:25.053Z,101881.59
2023-03-02T06:39:16.573Z,101880.53
2023-03-02T06:40:10.236Z,101881.13
2023-03-02T06:41:01.768Z,101881.69
2023-03-02T06:41:53.263Z,101885.91
2023-03-02T06:42:44.781Z,101888.13
2023-03-02T06:43:36.215Z,101883.63
2023-03-02T06:44:27.697Z,101884.06
2023-03-02T06:45:19.283Z,101882.28
2023-03-02T06:46:11.242Z,101881.09
2023-03-02T06:47:02.839Z,101880.16
2023-03-02T06:47:55.221Z,101884.38
2023-03-02T06:48:47.034Z,101883.63
2023-03-02T06:49:38.702Z,101888.09
2023-03-02T06:50:30.693Z,101882.28
2023-03-02T06:51:22.119Z,101886.78
2023-03-02T06:52:14.282Z,101886.16
2023-03-02T06:53:05.707Z,101893.34
2023-03-02T06:53:57.215Z,101884.97
2023-03-02T06:54:48.824Z,101889.94
2023-03-02T06:55:40.434Z,101883.19
2023-03-02T06:56:32.111Z,101892.94
2023-03-02T06:57:23.805Z,101891.16
2023-03-02T06:58:15.717Z,101890.84
2023-03-02T06:59:07.496Z,101888.19
2023-03-02T07:00:01.038Z,101883.69
2023-03-02T07:00:53.690Z,101898.78
2023-03-02T07:01:45.184Z,101894.28
2023-03-02T07:02:37.630Z,101891.63
2023-03-02T07:03:29.228Z,101884.88
2023-03-02T07:04:20.859Z,101897.44
2023-03-02T07:05:12.771Z,101898.31
2023-03-02T07:06:04.949Z,101892.22
2023-03-02T07:06:56.636Z,101888.00
2023-03-02T07:07:48.119Z,101889.69
2023-03-02T07:08:40.216Z,101889.22
2023-03-02T07:09:34.514Z,101884.00
2023-03-02T07:10:26.032Z,101883.13
2023-03-02T07:11:17.605Z,101889.09
2023-03-02T07:12:09.072Z,101879.09
2023-03-02T07:13:00.638Z,101887.44
2023-03-02T07:13:52.115Z,101885.78
2023-03-02T07:14:43.845Z,101883.13
2023-03-02T07:15:35.305Z,101880.56
2023-03-02T07:16:27.411Z,101886.72
2023-03-02T07:17:19.103Z,101878.78
2023-03-02T07:18:10.571Z,101884.91
2023-03-02T07:19:02.321Z,101887.44
2023-03-02T07:19:54.041Z,101879.66
2023-03-02T07:20:45.790Z,101884.00
2023-03-02T07:21:37.258Z,101883.13
2023-03-02T07:22:28.737Z,101883.13
2023-03-02T07:23:20.415Z,101878.91
2023-03-02T07:24:11.925Z,101879.22
2023-03-02T07:25:03.889Z,101883.41
2023-03-02T07:25:56.058Z,101885.34
2023-03-02T07:26:47.633Z,101881.47
2023-03-02T07:27:40.250Z,101886.84
2023-03-02T07:28:31.757Z,101891.31
2023-03-02T07:29:23.576Z,101882.06
2023-03-02T07:30:15.202Z,101878.03
2023-03-02T07:31:07.082Z,101887.75
2023-03-02T07:32:01.736Z,101887.31
2023-03-02T07:32:53.318Z,101882.97
2023-03-02T07:33:44.884Z,101884.75
2023-03-02T07:34:36.406Z,101882.66
2023-03-02T07:35:27.916Z,101877.25
2023-03-02T07:36:19.477Z,101875.00
2023-03-02T07:37:11.177Z,101880.09
2023-03-02T07:38:02.666Z,101878.78
2023-03-02T07:38:55.189Z,101884.91
2023-03-02T07:39:48.083Z,101877.56
2023-03-02T07:40:43.511Z,101880.41
2023-03-02T07:41:35.406Z,101883.06
2023-03-02T07:42:27.044Z,101876.63
2023-03-02T07:43:23.889Z,101880.22
2023-03-02T07:44:16.330Z,101874.56
2023-03-02T07:45:10.649Z,101876.63
2023-03-02T07:46:04.321Z,101878.72
2023-03-02T07:46:56.001Z,101880.94
2023-03-02T07:47:47.793Z,101881.22
2023-03-02T07:48:39.444Z,101885.88
2023-03-02T07:49:32.043Z,101885.25
2023-03-02T07:50:23.594Z,101888.38
2023-03-02T07:51:14.991Z,101883.88
2023-03-02T07:52:06.674Z,101888.50
2023-03-02T07:52:59.939Z,101881.16
2023-03-02T07:53:51.811Z,101885.78
2023-03-02T07:54:43.376Z,101883.34
2023-03-02T07:55:34.897Z,101876.28
2023-03-02T07:56:26.334Z,101880.31
2023-03-02T07:57:18.245Z,101880.59
2023-03-02T07:58:09.793Z,101885.50
2023-03-02T07:59:01.326Z,101882.88
2023-03-02T07:59:52.767Z,101877.63
2023-03-02T08:00:44.408Z,101878.00
2023-03-02T08:01:36.261Z,101873.34
2023-03-02T08:02:28.598Z,101877.97
2023-03-02T08:03:20.343Z,101875.81
2023-03-02T08:04:11.746Z,101874.63
2023-03-02T08:05:03.965Z,101875.56
2023-03-02T08:05:55.747Z,101874.59
2023-03-02T08:06:47.552Z,101877.72
2023-03-02T08:07:40.715Z,101881.09
2023-03-02T08:08:32.216Z,101881.63
2023-03-02T08:09:23.665Z,101876.81
2023-03-02T08:10:15.415Z,101879.28
2023-03-02T08:11:14.868Z,101881.63
2023-03-02T08:12:06.328Z,101883.53
2023-03-02T08:12:57.765Z,101884.09
2023-03-02T08:13:49.284Z,101885.41
2023-03-02T08:14:40.889Z,101879.91
2023-03-02T08:15:32.339Z,101883.91
2023-03-02T08:16:26.285Z,101876.28
2023-03-02T08:17:17.842Z,101879.53
2023-03-02T08:18:09.616Z,101880.31
2023-03-02T08:19:01.306Z,101881.75
2023-03-02T08:19:52.953Z,101882.88
2023-03-02T08:20:44.493Z,101870.00
2023-03-02T08:21:36.188Z,101869.78
2023-03-02T08:22:27.610Z,101875.28
2023-03-02T08:23:19.277Z,101876.56
2023-03-02T08:24:12.303Z,101882.56
2023-03-02T08:25:04.246Z,101874.78
2023-03-02T08:25:56.302Z,101878.72
2023-03-02T08:26:47.771Z,101883.34
2023-03-02T08:27:40.169Z,101878.47
2023-03-02T08:28:31.657Z,101879.38
2023-03-02T08:29:24.551Z,101874.69
2023-03-02T08:30:16.286Z,101880.81
2023-03-02T08:31:09.409Z,101881.19
2023-03-02T08:32:01.163Z,101874.81
2023-03-02T08:32:52.976Z,101876.31
2023-03-02T08:33:45.912Z,101869.66
2023-03-02T08:34:37.635Z,101871.47
2023-03-02T08:35:29.088Z,101869.41
2023-03-02T08:36:22.072Z,101874.25
2023-03-02T08:37:13.499Z,101864.66
2023-03-02T08:38:04.963Z,101872.06
2023-03-02T08:38:56.494Z,101867.22
2023-03-02T08:39:48.411Z,101861.19
2023-03-02T08:40:39.843Z,101865.16
2023-03-02T08:41:31.512Z,101863.34
2023-03-02T08:42:23.573Z,101860.16
2023-03-02T08:43:15.051Z,101863.97
2023-03-02T08:44:07.453Z,101857.41
2023-03-02T08:44:58.902Z,101865.84
2023-03-02T08:45:57.723Z,101861.59
2023-03-02T08:46:51.040Z,101866.03
2023-03-02T08:47:42.724Z,101865.50
2023-03-02T08:48:34.570Z,101864.19
2023-03-02T08:49:26.284Z,101858.78
2023-03-02T08:50:17.867Z,101863.50
2023-03-02T08:51:13.982Z,101867.47
2023-03-02T08:52:05.759Z,101856.44
2023-03-02T08:52:57.256Z,101863.38
2023-03-02T08:53:51.054Z,101858.75
2023-03-02T08:54:42.711Z,101851.75
2023-03-02T08:55:37.550Z,101856.88
2023-03-02T08:56:32.590Z,101855.44
2023-03-02T08:57:24.302Z,101855.81
2023-03-02T08:58:15.908Z,101856.69
2023-03-02T08:59:12.383Z,101846.66
2023-03-02T09:00:08.890Z,101852.09
2023-03-02T09:01:00.445Z,101841.41
2023-03-02T09:01:51.893Z,101846.78
2023-03-02T09:02:43.376Z,101840.88
2023-03-02T09:03:35.069Z,101840.88
2023-03-02T09:04:26.611Z,101845.91
2023-03-02T09:05:18.396Z,101846.03
2023-03-02T09:06:09.894Z,101843.47
2023-03-02T09:07:01.496Z,101844.94
2023-03-02T09:07:53.074Z,101839.06
2023-03-02T09:08:45.475Z,101833.25
2023-03-02T09:09:37.001Z,101842.53
2023-03-02T09:10:28.771Z,101840.97
2023-03-02T09:11:20.596Z,101840.56
2023-03-02T09:12:12.380Z,101837.22
2023-03-02T09:13:06.845Z,101838.22
2023-03-02T09:13:59.903Z,101833.63
2023-03-02T09:14:51.386Z,101835.75
2023-03-02T09:15:42.798Z,101834.84
2023-03-02T09:16:34.732Z,101838.41
2023-03-02T09:17:26.467Z,101834.19
2023-03-02T09:18:17.972Z,101830.41
2023-03-02T09:19:12.417Z,101836.44
2023-03-02T09:20:04.738Z,101831.72
2023-03-02T09:20:57.166Z,101834.66
2023-03-02T09:21:49.383Z,101831.38
2023-03-02T09:22:42.808Z,101828.59
2023-03-02T09:23:36.520Z,101831.38
2023-03-02T09:24:28.238Z,101824.00
2023-03-02T09:25:20.404Z,101828.56
2023-03-02T09:26:12.359Z,101830.66
2023-03-02T09:27:04.133Z,101830.78
2023-03-02T09:27:55.536Z,101831.88
2023-03-02T09:28:47.054Z,101831.66
2023-03-02T09:29:38.621Z,101831.78
2023-03-02T09:30:30.173Z,101829.19
2023-03-02T09:31:21.712Z,101825.16
2023-03-02T09:32:16.073Z,101821.56
2023-03-02T09:33:07.908Z,101825.16
2023-03-02T09:33:59.387Z,101820.06
2023-03-02T09:34:50.953Z,101821.19
2023-03-02T09:35:42.426Z,101820.97
2023-03-02T09:36:34.536Z,101827.19
2023-03-02T09:37:28.429Z,101819.81
2023-03-02T09:38:20.972Z,101820.94
2023-03-02T09:39:13.753Z,101823.91
2023-03-02T09:40:16.460Z,101823.34
2023-03-02T09:41:32.986Z,101823.75
2023-03-02T09:43:02.738Z,101821.81
2023-03-02T09:44:30.852Z,101813.28
2023-03-02T09:45:51.396Z,101816.19
2023-03-02T09:47:09.058Z,101812.31
2023-03-02T09:48:06.360Z,101811.53
2023-03-02T09:49:16.416Z,101811.66
2023-03-02T09:50:36.024Z,101809.03
2023-03-02T09:51:47.264Z,101810.19
2023-03-02T09:52:43.287Z,101812.66
2023-03-02T09:53:46.744Z,101813.97
2023-03-02T09:54:40.818Z,101808.22
2023-03-02T09:55:37.216Z,101808.75
2023-03-02T09:56:29.622Z,101806.56
2023-03-02T09:57:26.698Z,101810.13
2023-03-02T09:58:21.783Z,101806.66
2023-03-02T09:59:27.573Z,101799.31
2023-03-02T10:00:36.042Z,101801.91
2023-03-02T10:01:43.440Z,101801.72
2023-03-02T10:02:46.250Z,101800.00
2023-03-02T10:04:03.625Z,101801.22
2023-03-02T10:05:00.662Z,101797.75
2023-03-02T10:05:54.607Z,101799.13
2023-03-02T10:06:46.601Z,101797.44
2023-03-02T10:07:40.025Z,101797.63
2023-03-02T10:08:37.867Z,101799.25
2023-03-02T10:09:29.416Z,101798.50
2023-03-02T10:10:27.403Z,101797.50
2023-03-02T10:11:54.903Z,101794.94
2023-03-02T10:13:00.103Z,101797.59
2023-03-02T10:14:05.402Z,101792.72
2023-03-02T10:15:16.892Z,101788.97
2023-03-02T10:16:37.797Z,101781.13
2023-03-02T10:17:32.683Z,101789.25